Terminal Aerodrome Forecast
Issued by NWS St Louis, MO

Home | Current Version | Previous Version | Graphics & Text | Print | Product List | Glossary On
Versions: 1 2 3 4 5 6 7 8 9 10 11 12 13 14 15 16 17 18 19 20 21 22 23 24 25 26
089
FTUS43 KLSX 222342
TAFSTL
TAF
KSTL 222342Z 2300/2406 18007KT P6SM SCT250
     FM231000 VRB04KT 4SM BR BKN050
     FM231200 VRB03KT 2SM BR BKN015
     FM231600 15005KT 5SM BR OVC025
     FM231800 15007KT P6SM BKN035
     FM232100 14009KT P6SM BKN040
     FM240000 14012KT P6SM BKN040=

USA.gov is the U.S. government's official web portal to all federal, state and local government web resources and services.